Time;durP1;ratioP1;P1;durP2;ratioP2;P2;SDS_P1;SDS_P2;PMS_P1;PMS_P2;Temp;Humidity;BMP_temperature;BMP_pressure;BME280_temperature;BME280_humidity;BME280_pressure;Samples;Min_cycle;Max_cycle;Signal;HPM_P1;HPM_P2
2021/12/16 00:09:00;;;;;;;29.30;14.95;;;7.40;99.90;;;;;;4904298;29;20048;-66
2021/12/16 00:35:25;;;;;;;;;;;7.50;99.90;;;;;;4968213;28;20488;-66
2021/12/16 00:37:51;;;;;;;26.30;16.05;;;7.50;99.90;;;;;;4973776;28;19933;-66
2021/12/16 00:40:17;;;;;;;32.42;17.48;;;7.50;99.90;;;;;;4964156;28;20077;-66
2021/12/16 00:42:53;;;;;;;31.48;17.55;;;7.50;99.90;;;;;;4961221;28;20400;-66
2021/12/16 00:47:49;;;;;;;29.77;18.63;;;7.50;99.90;;;;;;4961805;28;20058;-66
2021/12/16 00:54:09;;;;;;;31.33;18.40;;;7.50;99.90;;;;;;4965663;28;20118;-66
2021/12/16 00:55:55;;;;;;;28.75;18.95;;;7.50;99.90;;;;;;4963212;28;20046;-66
2021/12/16 00:58:26;;;;;;;30.27;18.15;;;7.50;99.90;;;;;;4959714;28;20034;-66
2021/12/16 01:03:42;;;;;;;33.60;19.65;;;7.50;99.90;;;;;;4955290;28;20396;-66
2021/12/16 01:36:33;;;;;;;34.13;20.60;;;7.40;99.90;;;;;;4961515;28;20035;-66
2021/12/16 01:39:43;;;;;;;30.52;19.65;;;7.50;99.90;;;;;;4943198;28;20078;-66
2021/12/16 01:47:37;;;;;;;36.78;20.10;;;7.50;99.90;;;;;;4961915;28;20050;-66
2021/12/16 01:50:09;;;;;;;34.97;20.48;;;7.50;99.90;;;;;;4941142;28;20047;-66
2021/12/16 01:55:25;;;;;;;36.47;21.25;;;7.50;99.90;;;;;;4956781;28;20050;-66
2021/12/16 01:57:56;;;;;;;39.20;21.88;;;7.50;99.90;;;;;;4960667;28;20112;-66
2021/12/16 02:00:57;;;;;;;38.20;20.30;;;7.50;99.90;;;;;;4959031;28;20043;-66
2021/12/16 02:03:40;;;;;;;35.70;20.48;;;7.50;99.90;;;;;;4945219;28;20058;-66
2021/12/16 02:08:44;;;;;;;39.63;22.10;;;7.50;99.90;;;;;;4964321;28;20074;-66
2021/12/16 02:11:28;;;;;;;36.60;20.08;;;7.50;99.90;;;;;;4954247;28;20351;-66
2021/12/16 02:28:09;;;;;;;33.17;20.95;;;7.30;99.90;;;;;;4957578;28;20074;-65
2021/12/16 02:39:07;;;;;;;48.15;21.45;;;7.10;99.90;;;;;;4937043;28;20054;-65
2021/12/16 02:41:33;;;;;;;39.47;22.60;;;7.10;99.90;;;;;;4939851;28;20047;-66
2021/12/16 02:49:23;;;;;;;44.40;22.75;;;7.00;99.90;;;;;;4963757;28;20046;-66
2021/12/16 02:51:49;;;;;;;40.22;22.77;;;7.00;99.90;;;;;;4936405;28;20047;-66
2021/12/16 02:54:15;;;;;;;40.95;23.13;;;6.90;99.90;;;;;;4963110;28;20046;-66
2021/12/16 02:56:42;;;;;;;45.00;23.83;;;7.00;99.90;;;;;;4958221;28;20050;-66
2021/12/16 02:59:07;;;;;;;43.92;23.58;;;6.90;99.90;;;;;;4945364;28;20459;-66
2021/12/16 03:01:44;;;;;;;46.22;24.33;;;6.80;99.90;;;;;;4944008;28;20058;-66
2021/12/16 03:04:13;;;;;;;44.30;23.52;;;6.80;99.90;;;;;;4964935;28;20404;-66
2021/12/16 03:06:42;;;;;;;41.28;23.58;;;6.80;99.90;;;;;;4956804;28;20046;-66
2021/12/16 03:09:11;;;;;;;46.20;24.85;;;6.80;99.90;;;;;;4960337;28;20054;-66
2021/12/16 03:12:37;;;;;;;51.05;26.60;;;6.80;99.90;;;;;;4959967;28;20130;-65
2021/12/16 03:14:36;;;;;;;41.92;24.65;;;6.80;99.90;;;;;;4951474;28;20398;-65
2021/12/16 03:17:12;;;;;;;41.22;24.25;;;6.90;99.90;;;;;;4961247;28;20068;-66
2021/12/16 03:19:51;;;;;;;43.55;25.02;;;6.90;99.90;;;;;;4964360;28;20053;-66
2021/12/16 03:22:38;;;;;;;43.38;24.20;;;6.90;99.90;;;;;;4955424;28;20067;-67
2021/12/16 03:25:15;;;;;;;49.03;25.27;;;7.00;99.90;;;;;;4965760;28;20134;-66
2021/12/16 03:28:21;;;;;;;53.13;25.85;;;6.90;99.90;;;;;;4963125;28;20051;-66
2021/12/16 03:36:08;;;;;;;42.55;24.08;;;7.00;99.90;;;;;;4960943;28;20105;-66
2021/12/16 03:38:36;;;;;;;46.80;25.17;;;7.00;99.90;;;;;;4943279;28;20049;-66
2021/12/16 03:41:05;;;;;;;46.10;25.90;;;7.00;99.90;;;;;;4966938;28;20047;-66
2021/12/16 03:43:32;;;;;;;40.58;24.35;;;7.00;99.90;;;;;;4958408;28;20368;-66
2021/12/16 03:48:43;;;;;;;49.80;26.55;;;7.00;99.90;;;;;;4956753;28;20114;-66
2021/12/16 03:51:16;;;;;;;45.40;25.90;;;7.00;99.90;;;;;;4962220;28;20066;-66
2021/12/16 03:53:44;;;;;;;40.88;24.10;;;7.10;99.90;;;;;;4960450;28;20033;-66
2021/12/16 03:56:11;;;;;;;44.15;25.90;;;7.10;99.90;;;;;;4950484;28;20101;-66
2021/12/16 03:58:38;;;;;;;50.58;28.42;;;7.10;99.90;;;;;;4957172;28;20150;-66
2021/12/16 04:01:08;;;;;;;48.03;26.83;;;7.10;99.90;;;;;;4966900;28;20049;-66
2021/12/16 04:03:34;;;;;;;45.17;25.25;;;7.20;99.90;;;;;;4950462;28;20043;-66
2021/12/16 04:06:00;;;;;;;46.17;27.25;;;7.20;99.90;;;;;;4959717;28;20042;-66
2021/12/16 04:08:26;;;;;;;42.42;25.05;;;7.10;99.90;;;;;;4963404;28;20547;-66
2021/12/16 04:11:04;;;;;;;43.92;25.02;;;7.10;99.90;;;;;;4958413;28;20550;-66
2021/12/16 04:13:30;;;;;;;43.85;22.85;;;7.10;99.90;;;;;;4965740;28;20031;-66
2021/12/16 04:15:56;;;;;;;40.08;23.98;;;7.00;99.90;;;;;;4940299;28;20035;-66
2021/12/16 04:18:23;;;;;;;50.97;25.05;;;7.00;99.90;;;;;;4964222;28;20392;-66
2021/12/16 04:20:49;;;;;;;40.47;23.98;;;7.00;99.90;;;;;;4957703;28;20130;-66
2021/12/16 04:23:15;;;;;;;51.88;25.55;;;6.90;99.90;;;;;;4962791;28;20498;-66
2021/12/16 04:25:44;;;;;;;51.78;25.20;;;6.90;99.90;;;;;;4956435;28;20047;-66
2021/12/16 04:28:18;;;;;;;46.08;24.30;;;6.80;99.90;;;;;;4964986;28;20035;-66
2021/12/16 04:30:45;;;;;;;61.33;25.85;;;6.80;99.90;;;;;;4960063;28;20069;-66
2021/12/16 04:33:11;;;;;;;49.92;25.88;;;6.90;99.90;;;;;;4946912;28;20163;-66
2021/12/16 04:35:38;;;;;;;47.58;26.45;;;6.80;99.90;;;;;;4961370;28;20067;-66
2021/12/16 04:38:06;;;;;;;44.47;25.98;;;6.80;99.90;;;;;;4963506;28;20070;-66
2021/12/16 04:40:35;;;;;;;47.67;26.40;;;6.90;99.90;;;;;;4957196;28;20077;-66
2021/12/16 04:43:02;;;;;;;52.78;27.17;;;6.80;99.90;;;;;;4964410;28;20066;-66
2021/12/16 04:45:29;;;;;;;52.03;26.63;;;6.80;99.90;;;;;;4945608;28;20058;-67
2021/12/16 04:47:55;;;;;;;49.75;26.52;;;6.80;99.90;;;;;;4959089;28;20444;-66
2021/12/16 04:50:21;;;;;;;59.45;27.85;;;6.80;99.90;;;;;;4960340;28;20090;-66
2021/12/16 04:52:47;;;;;;;54.15;26.35;;;6.70;99.90;;;;;;4959782;28;20046;-66
2021/12/16 04:55:14;;;;;;;47.28;25.85;;;6.70;99.90;;;;;;4960505;28;20431;-66
2021/12/16 04:57:41;;;;;;;48.17;25.52;;;6.60;99.90;;;;;;4957095;28;20599;-66
2021/12/16 05:00:12;;;;;;;60.30;28.67;;;6.60;99.90;;;;;;4962487;28;20037;-66
2021/12/16 05:02:38;;;;;;;50.88;26.92;;;6.60;99.90;;;;;;4956973;28;20047;-66
2021/12/16 05:05:05;;;;;;;63.90;28.38;;;6.50;99.90;;;;;;4965058;28;20483;-66
2021/12/16 05:07:31;;;;;;;50.38;26.92;;;6.50;99.90;;;;;;4953719;28;20069;-66
2021/12/16 05:10:06;;;;;;;72.13;29.08;;;6.40;99.90;;;;;;4947678;28;20134;-66
2021/12/16 05:12:37;;;;;;;48.50;26.00;;;6.40;99.90;;;;;;4959749;28;20038;-66
2021/12/16 05:15:18;;;;;;;45.72;27.90;;;6.30;99.90;;;;;;4962657;28;20046;-66
2021/12/16 05:17:48;;;;;;;53.67;30.63;;;6.40;99.90;;;;;;4958589;28;20075;-66
2021/12/16 05:20:26;;;;;;;52.45;25.90;;;6.40;99.90;;;;;;4957771;28;20123;-66
2021/12/16 05:28:16;;;;;;;49.35;23.55;;;6.30;99.90;;;;;;4958448;28;20359;-66
2021/12/16 05:30:42;;;;;;;72.43;29.13;;;6.30;99.90;;;;;;4958669;28;20102;-66
2021/12/16 05:33:09;;;;;;;44.08;24.08;;;6.20;99.90;;;;;;4963788;28;20034;-66
2021/12/16 05:35:35;;;;;;;47.35;24.23;;;6.20;99.90;;;;;;4960873;28;20476;-66
2021/12/16 05:38:02;;;;;;;53.05;25.13;;;6.10;99.90;;;;;;4941013;28;20105;-66
2021/12/16 05:40:28;;;;;;;42.85;23.67;;;6.10;99.90;;;;;;4944727;28;20055;-66
2021/12/16 05:42:57;;;;;;;92.40;29.55;;;6.10;99.90;;;;;;4941898;28;20118;-66
2021/12/16 05:45:24;;;;;;;65.00;27.92;;;6.10;99.90;;;;;;4962880;28;20070;-66
2021/12/16 05:47:51;;;;;;;44.08;21.80;;;6.10;99.90;;;;;;4957954;28;20047;-66
2021/12/16 05:50:18;;;;;;;68.18;31.23;;;6.20;99.90;;;;;;4964869;28;20043;-66
2021/12/16 05:52:44;;;;;;;114.55;33.35;;;6.20;99.90;;;;;;4962651;28;20043;-66
2021/12/16 05:55:12;;;;;;;98.80;35.20;;;6.30;99.90;;;;;;4960132;28;20053;-66
2021/12/16 05:57:40;;;;;;;63.67;30.40;;;6.30;99.90;;;;;;4962814;28;20039;-66
2021/12/16 06:00:11;;;;;;;80.40;31.52;;;6.40;99.90;;;;;;4954941;28;20053;-66
2021/12/16 06:02:37;;;;;;;61.90;30.20;;;6.40;99.90;;;;;;4950663;28;20086;-66
2021/12/16 06:05:03;;;;;;;230.55;46.17;;;6.50;99.90;;;;;;4957381;28;20073;-66
2021/12/16 06:07:29;;;;;;;58.85;28.52;;;6.50;99.90;;;;;;4963278;28;20046;-66
2021/12/16 06:09:55;;;;;;;59.65;29.25;;;6.50;99.90;;;;;;4958453;28;20042;-66
2021/12/16 06:12:23;;;;;;;83.95;31.48;;;6.50;99.90;;;;;;4944168;28;20472;-66
2021/12/16 06:15:42;;;;;;;58.63;27.85;;;6.50;99.90;;;;;;4954766;28;20042;-66
2021/12/16 06:28:33;;;;;;;57.60;26.85;;;6.70;99.90;;;;;;4960885;28;20126;-66
2021/12/16 06:31:00;;;;;;;76.90;30.63;;;6.70;99.90;;;;;;4955494;28;20070;-66
2021/12/16 06:33:26;;;;;;;54.22;27.40;;;6.80;99.90;;;;;;4960175;28;20041;-66
2021/12/16 06:35:53;;;;;;;51.80;27.55;;;6.80;99.90;;;;;;4958063;28;20042;-66
2021/12/16 06:38:23;;;;;;;77.43;31.20;;;6.80;99.90;;;;;;4966308;28;20421;-66
2021/12/16 06:40:49;;;;;;;128.43;36.22;;;6.90;99.90;;;;;;4954606;28;20054;-66
2021/12/16 06:43:17;;;;;;;69.70;31.48;;;6.90;99.90;;;;;;4958562;28;20045;-66
2021/12/16 06:45:47;;;;;;;52.22;28.10;;;6.90;99.90;;;;;;4955430;28;20097;-64
2021/12/16 06:48:18;;;;;;;56.75;29.63;;;7.00;99.90;;;;;;4960363;28;20130;-66
2021/12/16 06:50:53;;;;;;;53.42;28.10;;;7.00;99.90;;;;;;4961008;28;20039;-67
2021/12/16 06:53:27;;;;;;;66.55;30.92;;;7.00;99.90;;;;;;4947802;28;20113;-65
2021/12/16 06:56:03;;;;;;;72.00;31.75;;;7.00;99.90;;;;;;4959765;28;20039;-65
2021/12/16 07:01:20;;;;;;;58.28;29.38;;;7.10;99.90;;;;;;4955968;28;20054;-65
2021/12/16 07:03:49;;;;;;;74.95;31.33;;;7.10;99.90;;;;;;4963688;28;20543;-65
2021/12/16 07:06:20;;;;;;;71.03;31.65;;;7.10;99.90;;;;;;4943726;28;20519;-65
2021/12/16 07:08:49;;;;;;;50.80;27.95;;;7.10;99.90;;;;;;4964096;28;20035;-65
2021/12/16 07:11:15;;;;;;;78.70;32.90;;;7.10;99.90;;;;;;4956683;28;20073;-65
2021/12/16 07:13:45;;;;;;;84.03;32.67;;;7.10;99.90;;;;;;4941312;28;20054;-65
2021/12/16 07:16:12;;;;;;;64.40;29.98;;;7.10;99.90;;;;;;4963164;28;20471;-65
2021/12/16 07:18:38;;;;;;;75.80;30.10;;;7.10;99.90;;;;;;4961236;28;20043;-65
2021/12/16 07:21:04;;;;;;;56.35;28.73;;;7.20;99.90;;;;;;4958115;28;20098;-65
2021/12/16 07:23:31;;;;;;;97.40;35.20;;;7.10;99.90;;;;;;4935652;28;20059;-66
2021/12/16 07:25:58;;;;;;;98.22;34.30;;;7.10;99.90;;;;;;4962095;28;20110;-66
2021/12/16 07:28:25;;;;;;;86.68;33.35;;;7.10;99.90;;;;;;4952901;28;20114;-66
2021/12/16 07:30:51;;;;;;;63.63;28.98;;;7.10;99.90;;;;;;4957414;28;20058;-66
2021/12/16 07:33:17;;;;;;;55.08;27.75;;;7.10;99.90;;;;;;4956712;28;20122;-66
2021/12/16 07:35:44;;;;;;;75.70;29.35;;;7.00;99.90;;;;;;4962481;28;20089;-66
2021/12/16 07:38:11;;;;;;;69.05;28.58;;;7.00;99.90;;;;;;4952920;28;20043;-66
2021/12/16 07:40:38;;;;;;;92.38;33.20;;;7.00;99.90;;;;;;4957595;28;20093;-66
2021/12/16 07:45:38;;;;;;;93.65;32.63;;;6.90;99.90;;;;;;4962505;28;20121;-66
2021/12/16 07:48:04;;;;;;;54.17;27.08;;;6.80;99.90;;;;;;4952140;28;20039;-66
2021/12/16 07:50:30;;;;;;;83.32;32.50;;;6.80;99.90;;;;;;4956101;28;20042;-66
2021/12/16 07:52:56;;;;;;;57.85;27.42;;;6.70;99.90;;;;;;4953605;28;20061;-66
2021/12/16 07:55:23;;;;;;;61.72;28.58;;;6.70;99.90;;;;;;4962098;28;20039;-66
2021/12/16 07:57:49;;;;;;;62.85;29.92;;;6.70;99.90;;;;;;4951991;28;20031;-66
2021/12/16 08:00:27;;;;;;;66.75;30.45;;;6.70;99.90;;;;;;4947582;28;20038;-66
2021/12/16 08:02:53;;;;;;;84.07;32.78;;;6.60;99.90;;;;;;4967502;28;20426;-66
2021/12/16 08:05:22;;;;;;;99.22;34.85;;;6.70;99.90;;;;;;4959475;28;20031;-66
2021/12/16 08:07:47;;;;;;;105.75;36.25;;;6.70;99.90;;;;;;4941368;28;20066;-66
2021/12/16 08:10:19;;;;;;;153.32;39.97;;;6.70;99.90;;;;;;4961488;28;20108;-66
2021/12/16 08:12:45;;;;;;;236.95;42.70;;;6.80;99.90;;;;;;4964564;28;20054;-66
2021/12/16 08:15:11;;;;;;;295.08;47.40;;;6.80;99.90;;;;;;4943438;28;20039;-67
2021/12/16 08:17:38;;;;;;;195.75;40.17;;;6.80;99.90;;;;;;4965870;28;20159;-66
2021/12/16 08:20:07;;;;;;;200.70;40.78;;;6.80;99.90;;;;;;4964538;28;20511;-66
2021/12/16 08:22:33;;;;;;;214.63;45.95;;;6.90;99.90;;;;;;4965703;28;20051;-66
2021/12/16 08:25:03;;;;;;;185.43;44.08;;;6.90;99.90;;;;;;4958778;28;20407;-66
2021/12/16 08:27:33;;;;;;;272.63;45.50;;;6.90;99.90;;;;;;4965106;28;20042;-66
2021/12/16 08:29:59;;;;;;;314.50;47.72;;;7.10;99.90;;;;;;4961401;28;20057;-66
2021/12/16 08:32:25;;;;;;;283.60;45.40;;;7.10;99.90;;;;;;4951163;28;20090;-66
2021/12/16 08:34:51;;;;;;;171.13;41.78;;;7.10;99.90;;;;;;4956570;28;20027;-66
2021/12/16 08:37:17;;;;;;;344.15;55.22;;;7.20;99.90;;;;;;4963638;28;20043;-66
2021/12/16 08:39:44;;;;;;;415.52;59.97;;;7.20;99.90;;;;;;4938893;28;20050;-66
2021/12/16 08:42:11;;;;;;;165.25;41.85;;;7.30;99.90;;;;;;4966796;28;20043;-66
2021/12/16 08:44:38;;;;;;;147.43;40.35;;;7.40;99.90;;;;;;4965278;28;20549;-66
2021/12/16 08:47:08;;;;;;;140.75;39.33;;;7.40;99.90;;;;;;4964808;28;20050;-66
2021/12/16 08:49:34;;;;;;;139.35;36.95;;;7.50;99.90;;;;;;4963384;28;20055;-66
2021/12/16 08:52:05;;;;;;;90.50;33.78;;;7.50;99.90;;;;;;4959330;28;20416;-66
2021/12/16 08:54:31;;;;;;;97.15;34.17;;;7.60;99.90;;;;;;4965426;28;20108;-66
2021/12/16 08:56:57;;;;;;;101.38;35.42;;;7.70;99.90;;;;;;4954911;28;20488;-66
2021/12/16 08:59:25;;;;;;;83.25;33.42;;;7.70;99.90;;;;;;4960315;28;20049;-66
2021/12/16 09:01:54;;;;;;;85.88;32.97;;;7.70;99.90;;;;;;4962810;28;20051;-66
2021/12/16 09:04:23;;;;;;;94.53;33.13;;;7.70;99.90;;;;;;4973099;28;20050;-66
2021/12/16 09:06:50;;;;;;;79.25;31.08;;;7.80;99.90;;;;;;4952827;28;20046;-66
2021/12/16 09:09:16;;;;;;;87.28;33.10;;;7.90;99.90;;;;;;4948181;28;20116;-66
2021/12/16 09:14:27;;;;;;;60.72;27.48;;;7.90;99.90;;;;;;4964753;28;20042;-66
2021/12/16 09:16:53;;;;;;;70.85;29.60;;;8.00;99.90;;;;;;4953957;28;20542;-66
2021/12/16 09:19:19;;;;;;;61.83;27.42;;;8.00;99.90;;;;;;4959851;28;20093;-66
2021/12/16 09:21:45;;;;;;;59.05;26.95;;;8.10;99.90;;;;;;4959565;28;20129;-66
2021/12/16 09:24:14;;;;;;;53.38;25.50;;;8.10;99.90;;;;;;4964559;28;20145;-66
2021/12/16 09:26:41;;;;;;;50.67;25.38;;;8.10;99.90;;;;;;4955881;28;20114;-66
2021/12/16 09:29:07;;;;;;;49.50;25.33;;;8.10;99.90;;;;;;4961047;28;20043;-66
2021/12/16 09:31:34;;;;;;;44.40;23.60;;;8.10;99.90;;;;;;4958968;28;20085;-66
2021/12/16 09:34:07;;;;;;;49.78;24.15;;;8.10;99.90;;;;;;4965841;28;20033;-66
2021/12/16 09:36:35;;;;;;;50.83;24.67;;;8.10;99.90;;;;;;4946038;28;20078;-66
2021/12/16 09:39:01;;;;;;;48.80;24.33;;;8.10;99.90;;;;;;4956725;28;20039;-66
2021/12/16 09:41:28;;;;;;;44.67;23.60;;;8.10;99.90;;;;;;4961615;28;20126;-66
2021/12/16 09:43:56;;;;;;;44.10;23.08;;;8.10;99.90;;;;;;4937306;28;20098;-66
2021/12/16 09:46:26;;;;;;;51.60;24.13;;;8.20;99.90;;;;;;4966589;28;20070;-66
2021/12/16 09:48:54;;;;;;;40.10;22.25;;;8.20;99.90;;;;;;4943541;28;20054;-63
2021/12/16 09:51:23;;;;;;;44.55;22.55;;;8.10;99.90;;;;;;4965320;28;20049;-64
2021/12/16 09:53:52;;;;;;;49.95;24.05;;;8.20;99.90;;;;;;4955615;28;20067;-64
2021/12/16 09:56:19;;;;;;;40.15;22.75;;;8.20;99.90;;;;;;4962618;28;20558;-64
2021/12/16 09:58:47;;;;;;;45.20;23.63;;;8.30;99.90;;;;;;4958799;28;20523;-64
2021/12/16 10:01:14;;;;;;;40.58;23.55;;;8.30;99.90;;;;;;4959775;28;20563;-65
2021/12/16 10:03:43;;;;;;;41.40;23.05;;;8.30;99.90;;;;;;4951090;28;20053;-65
2021/12/16 10:06:10;;;;;;;31.48;19.60;;;8.40;99.90;;;;;;4961722;28;20042;-65
2021/12/16 10:08:36;;;;;;;29.40;19.73;;;8.30;99.90;;;;;;4954557;28;20062;-65
2021/12/16 10:11:06;;;;;;;31.73;20.17;;;8.40;99.90;;;;;;4961751;28;20039;-64
2021/12/16 10:14:30;;;;;;;28.77;18.38;;;8.40;99.90;;;;;;4960729;28;20131;-64
2021/12/16 10:19:02;;;;;;;37.60;18.83;;;8.40;99.90;;;;;;4955675;28;20062;-67
2021/12/16 10:21:30;;;;;;;28.05;18.05;;;8.40;99.90;;;;;;4962610;28;20154;-66
2021/12/16 10:23:56;;;;;;;35.63;18.90;;;8.50;99.90;;;;;;4955805;28;20380;-66
2021/12/16 10:26:24;;;;;;;35.90;18.88;;;8.50;99.90;;;;;;4958590;28;20098;-66
2021/12/16 10:28:56;;;;;;;30.17;19.52;;;8.50;99.90;;;;;;4954378;28;20039;-66
2021/12/16 10:31:29;;;;;;;34.38;18.25;;;8.50;99.90;;;;;;4961702;28;20043;-66
2021/12/16 10:34:05;;;;;;;35.40;20.80;;;8.60;99.90;;;;;;4941928;28;20066;-66
2021/12/16 10:36:37;;;;;;;31.42;18.90;;;8.60;99.90;;;;;;4944659;28;20057;-66
2021/12/16 10:39:29;;;;;;;33.38;19.60;;;8.50;99.90;;;;;;4936893;28;20047;-66
2021/12/16 10:42:04;;;;;;;40.58;19.10;;;8.60;99.90;;;;;;4954103;28;20137;-66
2021/12/16 10:44:33;;;;;;;31.13;19.38;;;8.60;99.90;;;;;;4940368;28;20047;-66
2021/12/16 10:47:04;;;;;;;36.10;19.15;;;8.60;99.90;;;;;;4961861;28;20081;-67
2021/12/16 10:49:51;;;;;;;33.70;19.63;;;8.60;99.90;;;;;;4945382;28;20042;-67
2021/12/16 10:52:26;;;;;;;35.65;20.08;;;8.70;99.90;;;;;;4959673;28;20039;-66
2021/12/16 10:54:54;;;;;;;42.22;20.30;;;8.70;99.90;;;;;;4959586;28;20097;-67
2021/12/16 10:57:31;;;;;;;47.10;19.92;;;8.60;99.90;;;;;;4964008;28;20142;-66
2021/12/16 11:00:07;;;;;;;60.65;21.35;;;8.70;99.90;;;;;;4955513;28;20039;-67
2021/12/16 11:02:36;;;;;;;51.13;20.55;;;8.60;99.90;;;;;;4962938;28;20466;-66
2021/12/16 11:05:16;;;;;;;45.47;21.10;;;8.60;99.90;;;;;;4957646;28;20502;-66
2021/12/16 11:07:43;;;;;;;59.92;21.95;;;8.60;99.90;;;;;;4958391;28;20065;-66
2021/12/16 11:10:12;;;;;;;45.88;21.17;;;8.60;99.90;;;;;;4962554;28;20049;-66
2021/12/16 11:12:47;;;;;;;50.72;21.85;;;8.60;99.90;;;;;;4944528;28;20058;-66
2021/12/16 11:15:39;;;;;;;60.40;22.00;;;8.60;99.90;;;;;;4960652;28;20442;-66
2021/12/16 11:18:17;;;;;;;75.15;24.15;;;8.60;99.90;;;;;;4959952;28;20263;-66
2021/12/16 11:20:49;;;;;;;60.72;22.50;;;8.60;99.90;;;;;;4955937;28;20039;-66
2021/12/16 11:23:15;;;;;;;61.35;22.67;;;8.60;99.90;;;;;;4958314;28;20062;-66
2021/12/16 11:25:46;;;;;;;67.13;23.92;;;8.60;99.90;;;;;;4963678;28;20035;-66
2021/12/16 11:28:31;;;;;;;58.80;21.98;;;8.70;99.90;;;;;;4936295;28;20076;-66
2021/12/16 11:31:09;;;;;;;58.00;21.75;;;8.70;99.90;;;;;;4937032;28;20528;-66
2021/12/16 11:33:56;;;;;;;61.33;24.10;;;8.70;99.90;;;;;;4961616;28;20043;-66
2021/12/16 11:36:29;;;;;;;53.03;21.02;;;8.70;99.90;;;;;;4955614;28;20570;-66
2021/12/16 11:39:04;;;;;;;73.25;23.65;;;8.70;99.90;;;;;;4961114;28;20031;-66
2021/12/16 11:41:35;;;;;;;63.95;22.33;;;8.70;99.90;;;;;;4964062;28;20402;-66
2021/12/16 11:44:04;;;;;;;62.22;21.08;;;8.70;99.90;;;;;;4964882;28;20435;-66
2021/12/16 11:46:53;;;;;;;61.28;22.30;;;8.70;99.90;;;;;;4963430;28;20043;-66
2021/12/16 11:49:51;;;;;;;79.53;24.02;;;8.80;99.90;;;;;;4965736;28;20035;-66
2021/12/16 11:52:26;;;;;;;62.90;23.20;;;8.80;99.90;;;;;;4952778;28;20764;-66
2021/12/16 11:55:07;;;;;;;57.60;21.33;;;8.90;99.90;;;;;;4963730;28;20124;-66
2021/12/16 11:57:37;;;;;;;60.33;21.17;;;8.90;99.90;;;;;;4957628;28;20329;-66
2021/12/16 12:00:08;;;;;;;55.65;21.30;;;8.90;99.90;;;;;;4964529;28;20420;-66
2021/12/16 12:02:47;;;;;;;52.42;20.77;;;8.90;99.90;;;;;;4946001;28;20090;-66
2021/12/16 12:05:26;;;;;;;47.58;21.08;;;9.00;99.90;;;;;;4959161;28;20535;-65
2021/12/16 12:08:08;;;;;;;54.15;21.30;;;9.00;99.90;;;;;;4940342;28;20086;-65
2021/12/16 12:10:36;;;;;;;52.35;20.95;;;9.00;99.90;;;;;;4966496;28;20047;-66
2021/12/16 12:13:06;;;;;;;54.42;21.13;;;9.00;99.90;;;;;;4961631;28;20110;-66
2021/12/16 12:15:51;;;;;;;50.08;19.52;;;9.10;99.90;;;;;;4969801;28;20081;-65
2021/12/16 12:18:52;;;;;;;51.40;21.60;;;9.10;99.90;;;;;;4926954;28;20119;-66
2021/12/16 12:21:26;;;;;;;63.28;20.50;;;9.20;99.90;;;;;;4955218;28;20062;-66
2021/12/16 12:23:59;;;;;;;58.13;21.17;;;9.20;99.90;;;;;;4943679;28;20051;-66
2021/12/16 12:26:26;;;;;;;53.67;19.80;;;9.20;99.90;;;;;;4963649;28;20531;-66
2021/12/16 12:28:56;;;;;;;56.80;21.02;;;9.20;99.90;;;;;;4957749;28;20035;-66
2021/12/16 12:31:25;;;;;;;51.40;20.08;;;9.20;99.90;;;;;;4975900;28;20047;-66
2021/12/16 12:33:51;;;;;;;57.78;20.23;;;9.20;99.90;;;;;;4962083;28;20109;-66
2021/12/16 12:36:19;;;;;;;58.13;19.75;;;9.20;99.90;;;;;;4959929;28;20122;-66
2021/12/16 12:38:45;;;;;;;51.75;19.77;;;9.20;99.90;;;;;;4955644;28;20038;-66
2021/12/16 12:41:11;;;;;;;45.22;18.50;;;9.20;99.90;;;;;;4961602;28;20054;-66
2021/12/16 12:43:37;;;;;;;58.92;19.05;;;9.20;99.90;;;;;;4945722;28;20054;-66
2021/12/16 12:46:05;;;;;;;52.55;18.73;;;9.30;99.90;;;;;;4960174;28;20053;-66
2021/12/16 12:48:34;;;;;;;54.58;19.77;;;9.30;99.90;;;;;;4964321;28;20042;-66
2021/12/16 12:51:00;;;;;;;61.95;20.98;;;9.30;99.90;;;;;;4955070;28;20495;-66
2021/12/16 12:53:55;;;;;;;55.15;19.95;;;9.30;99.90;;;;;;4961402;28;20043;-66
2021/12/16 12:56:30;;;;;;;49.55;19.05;;;9.30;99.90;;;;;;4948399;28;20105;-66
2021/12/16 12:58:58;;;;;;;;;;;9.30;99.90;;;;;;4960837;28;20035;-66
2021/12/16 13:01:38;;;;;;;47.97;19.55;;;9.30;99.90;;;;;;4960653;28;19994;-66
2021/12/16 13:04:08;;;;;;;49.45;19.33;;;9.30;99.90;;;;;;4959549;28;20047;-66
2021/12/16 13:06:54;;;;;;;53.63;20.35;;;9.30;99.90;;;;;;4958303;28;20372;-66
2021/12/16 13:09:35;;;;;;;55.13;21.25;;;9.30;99.90;;;;;;4949074;28;20063;-66
2021/12/16 13:12:28;;;;;;;58.53;21.20;;;9.30;99.90;;;;;;4954910;28;20066;-66
2021/12/16 13:15:04;;;;;;;58.55;20.88;;;9.30;99.90;;;;;;4963200;28;20434;-66
2021/12/16 13:28:17;;;;;;;57.03;21.23;;;9.30;99.90;;;;;;4964371;28;20051;-65
2021/12/16 13:31:02;;;;;;;47.08;19.77;;;9.30;99.90;;;;;;4961321;28;20676;-65
2021/12/16 13:33:53;;;;;;;46.38;18.80;;;9.30;99.90;;;;;;4961174;28;20039;-65
2021/12/16 13:36:38;;;;;;;54.28;19.70;;;9.30;99.90;;;;;;4939242;28;20051;-66
2021/12/16 13:39:14;;;;;;;52.72;19.48;;;9.30;99.90;;;;;;4943507;28;20035;-65
2021/12/16 13:41:55;;;;;;;42.00;19.15;;;9.30;99.90;;;;;;4956906;28;20043;-66
2021/12/16 13:44:58;;;;;;;46.72;20.08;;;9.30;99.90;;;;;;4948564;28;20101;-66
2021/12/16 14:02:48;;;;;;;40.70;19.02;;;9.20;99.90;;;;;;4960424;28;20563;-66
2021/12/16 14:05:55;;;;;;;44.92;18.92;;;9.10;99.90;;;;;;4960066;28;20146;-66
2021/12/16 14:08:40;;;;;;;40.03;19.25;;;9.00;99.90;;;;;;4958400;28;20125;-66
2021/12/16 14:14:30;;;;;;;46.10;18.92;;;8.90;99.90;;;;;;4955589;28;20043;-65
2021/12/16 14:17:14;;;;;;;42.92;18.80;;;8.80;99.90;;;;;;4963642;28;20077;-66
2021/12/16 14:42:24;;;;;;;50.20;19.35;;;8.50;99.90;;;;;;4961274;28;20070;-66
2021/12/16 14:50:11;;;;;;;56.17;20.08;;;8.40;99.90;;;;;;4957488;28;20113;-66
2021/12/16 14:52:37;;;;;;;81.30;19.50;;;8.40;99.90;;;;;;4963565;28;20054;-66
2021/12/16 14:55:10;;;;;;;103.20;20.05;;;8.30;99.90;;;;;;4954321;28;20475;-66
2021/12/16 14:57:42;;;;;;;45.58;18.20;;;8.30;99.90;;;;;;4946528;28;20051;-66
2021/12/16 15:00:21;;;;;;;70.22;30.27;;;8.30;99.90;;;;;;4953696;28;20316;-66
2021/12/16 15:02:48;;;;;;;123.90;23.33;;;8.30;99.90;;;;;;4948944;28;20086;-66
2021/12/16 15:05:22;;;;;;;127.25;21.42;;;8.30;99.90;;;;;;4961226;28;20391;-66
2021/12/16 15:07:48;;;;;;;63.97;17.57;;;8.30;99.90;;;;;;4958833;28;20336;-66
2021/12/16 15:10:16;;;;;;;62.25;19.42;;;8.20;99.90;;;;;;4952951;28;20422;-66
2021/12/16 15:12:50;;;;;;;57.88;19.48;;;8.20;99.90;;;;;;4963116;28;20118;-66
2021/12/16 15:33:09;;;;;;;102.60;23.30;;;8.20;99.90;;;;;;4954990;28;20142;-66
2021/12/16 15:45:17;;;;;;;137.65;26.55;;;8.20;99.90;;;;;;4960927;28;20514;-66
2021/12/16 15:48:00;;;;;;;146.05;26.17;;;8.20;99.90;;;;;;4952947;28;20526;-66
2021/12/16 15:50:37;;;;;;;70.88;22.10;;;8.20;99.90;;;;;;4962803;28;20058;-66
2021/12/16 15:53:06;;;;;;;171.93;25.65;;;8.20;99.90;;;;;;4953449;28;20044;-66
2021/12/16 15:55:35;;;;;;;88.97;21.88;;;8.20;99.90;;;;;;4957392;28;20549;-66
2021/12/16 15:58:20;;;;;;;65.07;21.85;;;8.10;99.90;;;;;;4957610;28;20047;-66
2021/12/16 16:00:52;;;;;;;142.48;24.83;;;8.20;99.90;;;;;;4943918;28;20121;-66
2021/12/16 16:03:18;;;;;;;151.20;25.42;;;8.20;99.90;;;;;;4956232;28;20105;-66
2021/12/16 16:05:48;;;;;;;72.72;21.85;;;8.20;99.90;;;;;;4965200;28;20466;-66
2021/12/16 16:08:16;;;;;;;73.97;22.77;;;8.30;99.90;;;;;;4958529;28;20043;-66
2021/12/16 16:10:45;;;;;;;72.53;21.48;;;8.20;99.90;;;;;;4960305;28;20107;-66
2021/12/16 16:13:20;;;;;;;71.65;22.35;;;8.20;99.90;;;;;;4943115;28;20077;-66
2021/12/16 16:15:48;;;;;;;74.97;20.92;;;8.20;99.90;;;;;;4966390;28;20043;-66
2021/12/16 16:21:19;;;;;;;105.15;23.83;;;8.20;99.90;;;;;;4945177;28;20047;-66
2021/12/16 16:23:59;;;;;;;85.28;23.27;;;8.20;99.90;;;;;;4960163;28;20043;-66
2021/12/16 16:26:28;;;;;;;63.30;21.90;;;8.30;99.90;;;;;;4961660;28;20384;-66
2021/12/16 16:28:58;;;;;;;62.95;22.67;;;8.20;99.90;;;;;;4963143;28;20042;-66
2021/12/16 16:31:26;;;;;;;196.13;30.60;;;8.30;99.90;;;;;;4961302;28;20483;-67
2021/12/16 16:33:52;;;;;;;100.55;25.70;;;8.30;99.90;;;;;;4940145;28;20061;-66
2021/12/16 16:36:20;;;;;;;108.35;25.00;;;8.30;99.90;;;;;;4958171;28;20039;-67
2021/12/16 16:38:54;;;;;;;94.05;26.23;;;8.20;99.90;;;;;;4959370;28;20178;-66
2021/12/16 16:41:24;;;;;;;220.05;32.17;;;8.30;99.90;;;;;;4941328;28;20113;-67
2021/12/16 16:44:03;;;;;;;113.05;25.90;;;8.30;99.90;;;;;;4954410;28;20382;-66
2021/12/16 16:46:40;;;;;;;145.77;29.27;;;8.30;99.90;;;;;;4938414;28;20306;-66
2021/12/16 16:49:09;;;;;;;308.58;158.05;;;8.30;99.90;;;;;;4962017;28;20539;-66